DW0281 Itzehoe DE current weather conditions

sailwx.info

Wind from 248 at 3 knots gusting 10

Air temperature 3.9° C
Dewpoint 2.1° C

Last reported at 2018-Dec-10 00:18 UTC.
Time now 2018-Dec-10 04:20 UTC

Location: N 53°53' E 009°32'.
View on Google Maps.

See reports from other nearby stations

  
Tides and Currents Weather Stations Pressure Air Temp Water Temp Dewpoint Dewpoint Depression Visibility Wind Speed Wind Dir Waves Ship Positions
date/time (UTC)wind fromknots sea level pressurealtimeterstation pressurevisibilityair tempwater tempwave heightnotes
2018-Dec-10 00:18 248 3 gusting 10 3.9
2018-Dec-10 00:03 212 2 gusting 6 3.9
2018-Dec-09 23:48 254 2 gusting 7 3.9
2018-Dec-09 23:33 241 3 gusting 6 3.9
2018-Dec-09 23:16 112 0 gusting 1 5.0
2018-Dec-09 23:01 022 1 gusting 1 5.0
2018-Dec-09 22:33 218 3 gusting 8 4.4
2018-Dec-09 22:18 261 4 gusting 11 4.4
2018-Dec-09 22:01 067 1 gusting 2 5.0
2018-Dec-09 21:48 208 4 gusting 8 4.4
2018-Dec-09 21:16 225 4 gusting 2 5.6
2018-Dec-09 21:03 265 3 gusting 8 5.0
2018-Dec-09 20:48 212 4 gusting 12 4.4
2018-Dec-09 20:31 225 4 gusting 6 5.6
2018-Dec-09 20:16 157 0 gusting 1 5.6
2018-Dec-09 20:03 221 5 gusting 11 5.0
2018-Dec-09 19:46 090 1 gusting 1 6.1
2018-Dec-09 19:33 270 6 gusting 10 5.0
2018-Dec-09 19:18 222 5 gusting 8 5.0
2018-Dec-09 19:03 225 4 gusting 11 5.0
2018-Dec-09 18:48 260 4 gusting 8 5.0
2018-Dec-09 18:31 045 2 gusting 1 6.1
2018-Dec-09 18:16 112 1 gusting 0 6.1
2018-Dec-09 18:03 260 3 gusting 10 5.0
2018-Dec-09 17:48 060 3 gusting 10 5.0
2018-Dec-09 17:33 050 3 gusting 15 5.0
2018-Dec-09 17:18 259 5 gusting 12 5.6
2018-Dec-09 17:01 270 6 gusting 7 6.1
2018-Dec-09 16:48 225 4 gusting 12 5.6
2018-Dec-09 16:31 067 1 gusting 2 6.7
2018-Dec-09 16:18 081 5 gusting 10 5.6
2018-Dec-09 16:03 189 4 gusting 9 6.1
2018-Dec-09 15:48 316 4 gusting 12 5.6
2018-Dec-09 15:31 045 1 gusting 3 6.7
2018-Dec-09 15:18 244 5 gusting 13 5.6
2018-Dec-09 14:46 067 1 gusting 1 6.7
2018-Dec-09 14:33 206 6 gusting 17 6.1
2018-Dec-09 14:18 280 6 gusting 13 6.1
2018-Dec-09 14:03 214 3 gusting 9 6.1
2018-Dec-09 13:46 022 1 gusting 1 7.2
2018-Dec-09 13:33 235 4 gusting 8 6.1
2018-Dec-09 13:18 248 4 gusting 10 6.7
2018-Dec-09 13:03 250 6 gusting 13 6.7
2018-Dec-09 12:46 067 0 gusting 1 7.8
2018-Dec-09 12:33 231 6 gusting 9 6.7
2018-Dec-09 12:18 265 6 gusting 13 6.7
2018-Dec-09 12:01 112 0 gusting 1 7.8
2018-Dec-09 11:48 225 6 gusting 9 6.7
2018-Dec-09 11:33 243 4 gusting 7 6.1
2018-Dec-09 11:18 270 4 gusting 6 5.6
2018-Dec-09 11:01 337 2 gusting 2 6.7
2018-Dec-09 10:31 022 0 6.7
2018-Dec-09 10:18 214 5 gusting 7 6.1
2018-Dec-09 10:03 250 4 gusting 6 5.6
2018-Dec-09 09:48 227 4 gusting 6 5.6
2018-Dec-09 09:31 360 0 gusting 1 6.1
2018-Dec-09 09:18 243 6 gusting 9 5.6
2018-Dec-09 09:01 112 4 gusting 5 6.1
2018-Dec-09 00:18 231 6.1
2018-Dec-09 00:03 236 6.1
2018-Dec-08 23:33 212 0 gusting 1 6.1
2018-Dec-08 23:16 045 6.7
2018-Dec-08 22:46 157 3 gusting 1 6.1
2018-Dec-08 22:01 112 4 gusting 5 6.7
2018-Dec-08 21:46 090 5 gusting 6 6.7
2018-Dec-08 20:16 135 6 gusting 6 6.7
2018-Dec-08 20:01 112 6 gusting 6 7.2
2018-Dec-08 19:16 135 6 gusting 5 7.2
2018-Dec-08 19:01 135 7 gusting 10 7.2
2018-Dec-08 18:46 135 7 gusting 12 7.2
2018-Dec-08 18:16 135 7 gusting 10 7.2
2018-Dec-08 18:03 291 7 gusting 16 6.7
2018-Dec-08 17:48 270 9 gusting 19 6.7
2018-Dec-08 17:31 270 1 gusting 2 7.8
2018-Dec-08 17:18 223 7 gusting 17 7.2
2018-Dec-08 17:01 180 7 gusting 7 7.2
2018-Dec-08 16:46 135 7 gusting 4 7.2
2018-Dec-08 16:31 112 8 gusting 9 7.2
2018-Dec-08 16:16 135 8 gusting 8 7.2
2018-Dec-08 16:03 265 8 gusting 18 7.2
2018-Dec-08 15:48 265 10 gusting 18 7.2
2018-Dec-08 15:31 022 2 gusting 2 7.8
2018-Dec-08 15:18 231 9 gusting 19 7.2
2018-Dec-08 15:03 252 8 gusting 15 7.2
2018-Dec-08 14:46 180 1 gusting 1 7.8
2018-Dec-08 14:33 223 7 gusting 13 7.2
2018-Dec-08 14:18 240 8 gusting 20 7.2
2018-Dec-08 14:03 279 7 gusting 13 7.2
2018-Dec-08 13:46 045 1 gusting 2 7.8
2018-Dec-08 13:33 251 8 gusting 16 7.2
2018-Dec-08 13:18 221 7 gusting 13 7.2
2018-Dec-08 13:03 279 7 gusting 12 7.2
2018-Dec-08 12:46 022 1 gusting 1 7.8
2018-Dec-08 12:31 135 6 gusting 8 7.2
2018-Dec-08 12:18 245 7 gusting 16 7.2
2018-Dec-08 12:03 226 6 gusting 12 6.7
2018-Dec-08 11:48 231 8 gusting 18 6.7
2018-Dec-08 11:31 067 1 gusting 1 7.2
2018-Dec-08 11:16 360 1 gusting 4 7.2
2018-Dec-08 10:46 022 2 gusting 10 7.2
2018-Dec-08 10:31 045 1 gusting 3 7.2
2018-Dec-08 10:18 260 6 gusting 12 6.1
2018-Dec-08 10:03 227 6 gusting 16 6.1
2018-Dec-08 09:48 270 5 gusting 10 6.1
2018-Dec-08 09:31 247 1 gusting 4 6.7
2018-Dec-08 09:16 067 1 gusting 4 6.7